Airfield :
LOGIN :

Register | Disclaimer

   EN    FR    IT 

 










Legend :    VFR   Marginal VFR   IFR   Intensive IFR   Very Intensive IFR
Visi :
Ceiling :
>= 8 km
>= 3000ft
5 to 8 km
1000 to 3000 ft
1500m to 5 km
500 to 1000 ft
800 to 1500m
200 to 500 ft
< 800m
< 200 ft
Symbols :   Thunderstorms  Fog  Heavy snow  Heavy precipitations  Wind > 20 kt
SIGMETs :     Misc.  Thunderstorms  Icing  Turbulence  Mountain Waves  Volcanic Ashes






- Airport Elevation : 1470 ft
- IATA code : KLU


LOWK - Klagenfurt

CURRENT METAR :
  • 240450Z AUTO 28003KT 250V310 9999 -RA FEW003 BKN006 03/02 Q1007 TEMPO 4000 RA

EXPIRED METARs :
  • 240420Z AUTO 30002KT 9999 -RA FEW003 BKN006 02/01 Q1007 TEMPO 4000 RA BKN004
  • 240350Z AUTO VRB02KT 9999 -RA FEW004 BKN006 03/01 Q1007 TEMPO 4000 RA BKN004
  • 240320Z AUTO VRB02KT 9999 -RA FEW003 BKN007 02/01 Q1007 TEMPO 4000 RA BKN005
  • 240250Z AUTO VRB02KT 9999 -RA FEW003 BKN007 02/01 Q1007
  • 240220Z AUTO 29004KT 9999 -RA FEW003 BKN005 02/01 Q1007
  • 240150Z AUTO 29003KT 9999 -RA FEW003 BKN006 02/01 Q1007
  • 240120Z AUTO 30003KT 9999 -RA FEW003 BKN004 02/01 Q1008
  • 240050Z AUTO 29003KT 9999 -RADZ FEW003 BKN005 02/01 Q1008
  • 240020Z AUTO 30003KT 9999 -RADZ FEW003 BKN006 02/01 Q1008

TAF TAF LOWK
Valid from the 24 at 00:00 until the 25 at 00:00 UTC


232315Z 2400/2424 VRB03KT 9000 -RA FEW005 OVC010 TX07/2415Z TN03/2405Z
TEMPO 2400/2407 3000 SNRA OVC005
PROB40
TEMPO 2400/2404 1500 SN VV002
FM240800 VRB03KT 9999 BKN030
TEMPO 2408/2413 -RA BKN012
TEMPO 2416/2424 -SHRA BKN012



MET'MAP, your aeronautical weather chart ! - Copyright ORBIFLY December 2007 - Disclaimer

ORBIFLY MET'MAP TEAM :

Programming & Development : Alexandra Zaïnal
Original concept : Baudouin d'Aumeries
Technical & hardware support : Manuel Goepfert
Assistance : Marc-Olivier Méhu




SOURCES & CREDITS :

   NOAA